Time;durP1;ratioP1;P1;durP2;ratioP2;P2;SDS_P1;SDS_P2;PMS_P1;PMS_P2;Temp;Humidity;BMP_temperature;BMP_pressure;BME280_temperature;BME280_humidity;BME280_pressure;Samples;Min_cycle;Max_cycle;Signal;HPM_P1;HPM_P2
2023/03/17 00:01:43;;;;;;;6.68;3.88;;;6.20;99.90;;;;;;5074681;28;20365;-62
2023/03/17 00:04:13;;;;;;;8.73;4.10;;;6.40;99.90;;;;;;5074220;28;20063;-62
2023/03/17 00:06:40;;;;;;;8.25;4.57;;;6.40;99.90;;;;;;5074396;28;20071;-62
2023/03/17 00:09:16;;;;;;;8.43;4.20;;;6.40;99.90;;;;;;5073382;28;20123;-61
2023/03/17 00:11:43;;;;;;;11.18;4.20;;;6.40;99.90;;;;;;5072547;28;20047;-62
2023/03/17 00:14:09;;;;;;;8.55;4.18;;;6.30;99.90;;;;;;5073431;28;20695;-62
2023/03/17 00:16:41;;;;;;;6.70;3.80;;;6.30;99.90;;;;;;5087911;28;20047;-62
2023/03/17 00:19:15;;;;;;;8.07;4.03;;;6.50;99.90;;;;;;5073165;28;20123;-62
2023/03/17 00:21:41;;;;;;;6.95;3.92;;;6.50;99.90;;;;;;5073190;28;20123;-62
2023/03/17 00:24:10;;;;;;;7.13;3.90;;;6.30;99.90;;;;;;5073580;28;20048;-61
2023/03/17 00:26:36;;;;;;;7.75;3.53;;;6.30;99.90;;;;;;5073058;28;20051;-62
2023/03/17 00:29:04;;;;;;;6.72;4.20;;;6.40;99.90;;;;;;5074748;28;20056;-62
2023/03/17 00:31:31;;;;;;;8.63;3.20;;;6.40;99.90;;;;;;5073564;28;20040;-62
2023/03/17 00:33:57;;;;;;;6.18;3.78;;;6.40;99.90;;;;;;5073032;28;20101;-61
2023/03/17 00:36:28;;;;;;;7.72;4.00;;;6.50;99.90;;;;;;5072673;28;20051;-62
2023/03/17 00:38:54;;;;;;;7.38;3.90;;;6.30;99.90;;;;;;5071533;28;20142;-62
2023/03/17 00:41:21;;;;;;;7.10;4.00;;;6.30;99.90;;;;;;5073772;28;21830;-61
2023/03/17 00:43:47;;;;;;;7.57;3.65;;;6.40;99.90;;;;;;5075135;28;20048;-62
2023/03/17 00:46:34;;;;;;;7.38;4.05;;;7.70;99.90;;;;;;5074076;28;20039;-62
2023/03/17 00:49:23;;;;;;;7.55;4.03;;;6.40;99.90;;;;;;5073763;28;20043;-61
2023/03/17 00:51:50;;;;;;;9.02;3.95;;;6.30;99.90;;;;;;5071106;28;20490;-61
2023/03/17 00:54:18;;;;;;;6.82;3.95;;;6.40;99.90;;;;;;5073618;28;20131;-62
2023/03/17 00:56:45;;;;;;;7.97;3.58;;;6.50;99.90;;;;;;5073687;28;20446;-62
2023/03/17 00:59:27;;;;;;;8.13;3.78;;;6.60;99.90;;;;;;5075386;28;20050;-62
2023/03/17 01:01:54;;;;;;;9.07;3.50;;;6.50;99.90;;;;;;5073900;28;20040;-62
2023/03/17 01:04:20;;;;;;;8.30;3.88;;;6.40;99.90;;;;;;5073082;28;20050;-62
2023/03/17 01:06:47;;;;;;;8.32;3.78;;;6.40;99.90;;;;;;5073657;28;20772;-62
2023/03/17 01:09:15;;;;;;;6.80;4.03;;;6.50;99.90;;;;;;5073411;28;20044;-62
2023/03/17 01:11:41;;;;;;;6.82;3.60;;;6.40;99.90;;;;;;5072594;28;20039;-62
2023/03/17 01:14:09;;;;;;;10.07;3.78;;;6.50;99.90;;;;;;5072439;28;20374;-62
2023/03/17 01:16:35;;;;;;;10.35;3.38;;;7.40;99.90;;;;;;5071736;28;20405;-62
2023/03/17 01:19:01;;;;;;;7.65;3.80;;;6.40;99.90;;;;;;5073144;28;20044;-61
2023/03/17 01:21:26;;;;;;;8.27;3.78;;;6.50;99.90;;;;;;5072680;28;20051;-62
2023/03/17 01:23:52;;;;;;;7.10;3.53;;;6.60;99.90;;;;;;5072563;28;20162;-62
2023/03/17 01:26:18;;;;;;;5.63;3.42;;;6.60;99.90;;;;;;5072881;28;20040;-62
2023/03/17 01:28:44;;;;;;;8.45;3.90;;;6.40;99.90;;;;;;5073451;28;20028;-63
2023/03/17 01:31:11;;;;;;;6.25;3.60;;;6.50;99.90;;;;;;5072947;28;20453;-61
2023/03/17 01:33:37;;;;;;;11.77;4.10;;;6.50;99.90;;;;;;5072298;28;20047;-61
2023/03/17 01:36:03;;;;;;;7.57;3.75;;;6.40;99.90;;;;;;5072926;28;20052;-61
2023/03/17 01:38:29;;;;;;;7.25;3.63;;;6.50;99.90;;;;;;5073834;28;20075;-62
2023/03/17 01:40:55;;;;;;;6.32;3.40;;;6.60;99.90;;;;;;5073487;28;20123;-62
2023/03/17 01:43:24;;;;;;;7.95;3.85;;;6.60;99.90;;;;;;5072496;28;20489;-61
2023/03/17 01:46:11;;;;;;;6.93;3.30;;;6.70;99.90;;;;;;5072421;28;20524;-62
2023/03/17 01:48:58;;;;;;;7.05;3.78;;;6.60;99.90;;;;;;5071805;28;20064;-61
2023/03/17 01:51:32;;;;;;;6.63;3.20;;;6.60;99.90;;;;;;5071515;28;20131;-62
2023/03/17 01:54:00;;;;;;;8.23;3.58;;;6.60;99.90;;;;;;5072598;28;20200;-62
2023/03/17 01:56:27;;;;;;;6.22;3.38;;;6.60;99.90;;;;;;5071947;28;20047;-62
2023/03/17 01:58:55;;;;;;;7.38;3.72;;;6.60;99.90;;;;;;5071939;28;20127;-62
2023/03/17 02:01:25;;;;;;;9.90;3.75;;;6.60;99.90;;;;;;5072312;28;20536;-62
2023/03/17 02:03:52;;;;;;;12.73;3.72;;;6.50;99.90;;;;;;5071753;28;20558;-62
2023/03/17 02:06:18;;;;;;;6.07;3.30;;;6.60;99.90;;;;;;5072869;28;20044;-62
2023/03/17 02:08:45;;;;;;;7.45;3.40;;;6.50;99.90;;;;;;5071767;28;20046;-62
2023/03/17 02:11:11;;;;;;;8.05;3.55;;;6.60;99.90;;;;;;5072665;28;20074;-62
2023/03/17 02:13:37;;;;;;;5.60;3.17;;;6.40;99.90;;;;;;5072954;28;20039;-62
2023/03/17 02:16:04;;;;;;;6.75;3.35;;;6.50;99.90;;;;;;5071235;28;20051;-62
2023/03/17 02:18:30;;;;;;;7.10;3.67;;;6.40;99.90;;;;;;5072587;28;20140;-63
2023/03/17 02:20:56;;;;;;;6.82;3.63;;;6.40;99.90;;;;;;5072867;28;20104;-61
2023/03/17 02:23:23;;;;;;;6.07;3.63;;;6.40;99.90;;;;;;5072533;28;20362;-61
2023/03/17 02:25:51;;;;;;;8.05;3.67;;;6.40;99.90;;;;;;5071855;28;20048;-62
2023/03/17 02:28:23;;;;;;;8.38;3.60;;;6.40;99.90;;;;;;5072117;28;20067;-61
2023/03/17 02:30:49;;;;;;;;;;;8.10;99.90;;;;;;5074112;28;20048;-61
2023/03/17 02:33:14;;;;;;;8.77;4.40;;;6.20;99.90;;;;;;5072211;28;20361;-62
2023/03/17 02:35:41;;;;;;;6.85;3.20;;;6.20;99.90;;;;;;5073573;28;20036;-62
2023/03/17 02:38:06;;;;;;;7.00;3.53;;;6.20;99.90;;;;;;5072009;28;20040;-62
2023/03/17 02:40:32;;;;;;;5.85;3.65;;;6.10;99.90;;;;;;5072608;28;20109;-62
2023/03/17 02:42:58;;;;;;;8.18;3.28;;;6.30;99.90;;;;;;5072388;28;20044;-62
2023/03/17 02:45:24;;;;;;;6.43;3.33;;;6.30;99.90;;;;;;5072525;28;20086;-62
2023/03/17 02:47:51;;;;;;;8.10;4.10;;;6.30;99.90;;;;;;5071577;28;20130;-61
2023/03/17 02:50:22;;;;;;;9.07;3.92;;;6.30;99.90;;;;;;5070682;28;20105;-62
2023/03/17 02:52:49;;;;;;;7.65;3.40;;;6.10;99.90;;;;;;5071570;28;20048;-62
2023/03/17 02:55:15;;;;;;;6.00;3.63;;;6.20;99.90;;;;;;5071109;28;20232;-62
2023/03/17 02:57:41;;;;;;;6.35;3.95;;;;;;;;;;5072636;28;20040;-62
2023/03/17 03:00:09;;;;;;;7.03;3.65;;;6.20;99.90;;;;;;5071440;28;20399;-62
2023/03/17 03:02:38;;;;;;;6.85;3.78;;;6.10;99.90;;;;;;5071616;28;20099;-62
2023/03/17 03:05:05;;;;;;;8.82;4.03;;;6.20;99.90;;;;;;5071344;28;20416;-62
2023/03/17 03:07:31;;;;;;;8.02;3.58;;;6.20;99.90;;;;;;5072060;28;20036;-62
2023/03/17 03:09:57;;;;;;;7.25;3.95;;;6.20;99.90;;;;;;5072094;28;20397;-62
2023/03/17 03:12:23;;;;;;;6.82;3.78;;;6.20;99.90;;;;;;5071670;28;20062;-61
2023/03/17 03:14:49;;;;;;;7.57;4.15;;;6.00;99.90;;;;;;5074988;28;20405;-62
2023/03/17 03:17:15;;;;;;;6.00;3.72;;;6.20;99.90;;;;;;5075192;28;20055;-62
2023/03/17 03:19:41;;;;;;;9.13;4.70;;;6.00;99.90;;;;;;5075905;28;20503;-61
2023/03/17 03:22:07;;;;;;;7.05;3.53;;;6.70;99.90;;;;;;5075068;28;20413;-62
2023/03/17 03:24:33;;;;;;;8.18;3.92;;;6.10;99.90;;;;;;5074933;28;20123;-62
2023/03/17 03:26:59;;;;;;;7.78;4.00;;;6.30;99.90;;;;;;5075088;28;20516;-63
2023/03/17 03:29:25;;;;;;;8.88;4.03;;;6.30;99.90;;;;;;5074291;28;20039;-62
2023/03/17 03:31:50;;;;;;;7.07;3.45;;;6.30;99.90;;;;;;5075648;28;20047;-62
2023/03/17 03:34:16;;;;;;;7.03;4.35;;;6.20;99.90;;;;;;5074218;28;20052;-62
2023/03/17 03:36:42;;;;;;;5.53;3.17;;;6.10;99.90;;;;;;5076422;28;20611;-62
2023/03/17 03:39:08;;;;;;;8.73;3.65;;;6.20;99.90;;;;;;5077097;28;20101;-62
2023/03/17 03:41:34;;;;;;;8.75;3.35;;;6.30;99.90;;;;;;5075599;28;20455;-62
2023/03/17 03:44:00;;;;;;;9.15;3.78;;;6.20;99.90;;;;;;5076066;28;20056;-62
2023/03/17 03:46:27;;;;;;;7.05;3.70;;;6.20;99.90;;;;;;5075383;28;20078;-62
2023/03/17 03:48:53;;;;;;;6.53;3.58;;;6.20;99.90;;;;;;5076408;28;20464;-62
2023/03/17 03:51:19;;;;;;;5.53;3.50;;;6.30;99.90;;;;;;5074923;28;20507;-62
2023/03/17 03:53:47;;;;;;;5.75;3.30;;;6.10;99.90;;;;;;5075444;28;20048;-62
2023/03/17 03:56:13;;;;;;;6.28;3.72;;;6.20;99.90;;;;;;5075977;28;20040;-63
2023/03/17 03:58:40;;;;;;;9.10;3.78;;;6.20;99.90;;;;;;5090210;28;20054;-62
2023/03/17 04:01:08;;;;;;;7.97;3.70;;;6.30;99.90;;;;;;5075754;28;20135;-62
2023/03/17 04:03:35;;;;;;;10.18;4.00;;;6.30;99.90;;;;;;5074317;28;20428;-62
2023/03/17 04:06:01;;;;;;;6.38;3.28;;;6.20;99.90;;;;;;5073552;28;20055;-62
2023/03/17 04:08:28;;;;;;;7.47;3.78;;;6.30;99.90;;;;;;5074773;28;20170;-62
2023/03/17 04:10:53;;;;;;;5.93;3.42;;;6.20;99.90;;;;;;5075287;28;20711;-63
2023/03/17 04:13:19;;;;;;;6.60;3.60;;;6.40;99.90;;;;;;5074694;28;20040;-62
2023/03/17 04:15:45;;;;;;;6.25;3.30;;;6.20;99.90;;;;;;5073715;28;20064;-62
2023/03/17 04:18:11;;;;;;;7.18;3.70;;;6.20;99.90;;;;;;5074961;28;20048;-62
2023/03/17 04:20:37;;;;;;;6.88;3.30;;;6.00;99.90;;;;;;5074700;28;20105;-62
2023/03/17 04:23:03;;;;;;;7.35;3.75;;;6.10;99.90;;;;;;5074085;28;20035;-63
2023/03/17 04:25:30;;;;;;;5.43;3.22;;;6.10;99.90;;;;;;5073144;28;20093;-62
2023/03/17 04:27:56;;;;;;;5.90;3.40;;;6.00;99.90;;;;;;5074676;28;20055;-63
2023/03/17 04:30:21;;;;;;;6.82;3.95;;;6.00;99.90;;;;;;5073961;28;20043;-62
2023/03/17 04:32:47;;;;;;;7.95;3.53;;;6.00;99.90;;;;;;5074213;28;20682;-63
2023/03/17 04:35:17;;;;;;;6.47;3.55;;;6.00;99.90;;;;;;5073497;28;20730;-62
2023/03/17 04:37:42;;;;;;;8.30;3.63;;;6.00;99.90;;;;;;5074688;28;20048;-63
2023/03/17 04:40:10;;;;;;;6.68;3.60;;;5.90;99.90;;;;;;5074941;28;20133;-62
2023/03/17 04:42:36;;;;;;;6.90;3.13;;;5.90;99.90;;;;;;5074944;28;20796;-62
2023/03/17 04:45:03;;;;;;;6.40;3.60;;;6.00;99.90;;;;;;5074331;28;20047;-60
2023/03/17 04:47:29;;;;;;;6.32;3.33;;;5.80;99.90;;;;;;5073633;28;20044;-62
2023/03/17 04:49:55;;;;;;;8.05;4.32;;;5.90;99.90;;;;;;5073205;28;20040;-61
2023/03/17 04:52:21;;;;;;;7.25;3.72;;;5.70;99.90;;;;;;5074378;28;20488;-61
2023/03/17 04:54:47;;;;;;;6.40;3.15;;;5.70;99.90;;;;;;5073728;28;20047;-61
2023/03/17 04:57:12;;;;;;;7.20;3.80;;;5.80;99.90;;;;;;5074059;28;20040;-62
2023/03/17 04:59:38;;;;;;;7.35;3.50;;;5.80;99.90;;;;;;5074614;28;20047;-62
2023/03/17 05:02:05;;;;;;;7.03;3.58;;;;;;;;;;5074613;28;20047;-61
2023/03/17 05:04:31;;;;;;;6.72;3.70;;;5.80;99.90;;;;;;5074583;28;20401;-61
2023/03/17 05:06:57;;;;;;;9.13;3.67;;;5.70;99.90;;;;;;5075826;28;20077;-62
2023/03/17 05:09:24;;;;;;;8.23;3.70;;;5.70;99.90;;;;;;5074007;28;20126;-62
2023/03/17 05:11:50;;;;;;;5.93;3.67;;;5.60;99.90;;;;;;5074522;28;20412;-61
2023/03/17 05:14:16;;;;;;;7.38;3.45;;;5.60;99.90;;;;;;5075061;28;21027;-61
2023/03/17 05:16:42;;;;;;;9.35;4.32;;;5.60;99.90;;;;;;5074284;28;20044;-62
2023/03/17 05:19:07;;;;;;;5.90;3.33;;;5.60;99.90;;;;;;5074115;28;20047;-62
2023/03/17 05:21:33;;;;;;;7.13;4.25;;;5.50;99.90;;;;;;5073234;28;20050;-62
2023/03/17 05:23:59;;;;;;;6.90;4.30;;;5.50;99.90;;;;;;5074154;28;20105;-61
2023/03/17 05:26:25;;;;;;;7.50;3.83;;;5.60;99.90;;;;;;5071838;28;20357;-61
2023/03/17 05:28:52;;;;;;;7.20;3.47;;;5.80;99.90;;;;;;5072925;28;20044;-61
2023/03/17 05:31:18;;;;;;;6.25;3.53;;;;;;;;;;5072839;28;20055;-61
2023/03/17 05:33:45;;;;;;;6.38;3.55;;;;;;;;;;5073039;28;20524;-61
2023/03/17 05:36:12;;;;;;;8.23;3.78;;;5.70;99.90;;;;;;5073239;28;20044;-62
2023/03/17 05:38:38;;;;;;;6.53;3.33;;;;;;;;;;5073231;28;20056;-61
2023/03/17 05:41:04;;;;;;;9.48;3.22;;;5.90;99.90;;;;;;5072737;28;20066;-59
2023/03/17 05:43:30;;;;;;;7.80;3.13;;;;;;;;;;5072749;28;20046;-60
2023/03/17 05:45:56;;;;;;;6.00;3.20;;;6.10;99.90;;;;;;5073744;28;20416;-60
2023/03/17 05:48:21;;;;;;;8.02;3.53;;;6.20;99.90;;;;;;5071353;28;20044;-60
2023/03/17 05:50:48;;;;;;;6.55;3.03;;;6.30;99.90;;;;;;5072647;28;20036;-60
2023/03/17 05:53:14;;;;;;;8.18;3.53;;;6.20;99.90;;;;;;5072328;28;20040;-61
2023/03/17 05:55:40;;;;;;;5.30;3.50;;;6.30;99.90;;;;;;5072889;28;20044;-60
2023/03/17 05:58:06;;;;;;;8.63;3.60;;;6.40;99.90;;;;;;5072708;28;20598;-60
2023/03/17 06:00:32;;;;;;;4.93;2.97;;;6.40;99.90;;;;;;5072464;28;20147;-60
2023/03/17 06:02:58;;;;;;;7.65;2.88;;;6.50;99.90;;;;;;5071097;28;20134;-59
2023/03/17 06:05:24;;;;;;;7.55;3.88;;;6.50;99.90;;;;;;5072213;28;20609;-60
2023/03/17 06:07:49;;;;;;;8.63;3.50;;;6.50;99.90;;;;;;5073776;28;20048;-60
2023/03/17 06:10:16;;;;;;;9.70;3.20;;;6.90;99.90;;;;;;5072360;28;20048;-60
2023/03/17 06:12:41;;;;;;;5.63;2.92;;;6.70;99.90;;;;;;5072578;28;20040;-60
2023/03/17 06:15:08;;;;;;;6.25;3.53;;;6.70;99.90;;;;;;5073211;28;20078;-60
2023/03/17 06:17:35;;;;;;;7.35;2.95;;;6.80;99.90;;;;;;5072097;28;20047;-60
2023/03/17 06:20:02;;;;;;;7.60;3.55;;;6.70;99.90;;;;;;5071873;28;20051;-60
2023/03/17 06:22:28;;;;;;;5.65;3.00;;;7.00;99.90;;;;;;5072342;28;20032;-61
2023/03/17 06:24:54;;;;;;;5.50;3.15;;;7.00;99.90;;;;;;5073117;28;20062;-60
2023/03/17 06:27:20;;;;;;;5.70;3.00;;;8.50;99.90;;;;;;5073367;28;20063;-61
2023/03/17 06:29:46;;;;;;;6.78;3.10;;;8.00;99.90;;;;;;5071926;28;20493;-60
2023/03/17 06:32:12;;;;;;;7.65;3.17;;;7.00;99.90;;;;;;5072879;28;21003;-60
2023/03/17 06:34:37;;;;;;;7.15;3.15;;;6.90;99.90;;;;;;5072002;28;20746;-60
2023/03/17 06:37:03;;;;;;;5.65;3.20;;;6.90;99.90;;;;;;5073962;28;20130;-60
2023/03/17 06:39:29;;;;;;;7.05;3.38;;;7.00;99.90;;;;;;5070461;28;20123;-60
2023/03/17 06:41:55;;;;;;;5.65;2.90;;;6.90;99.90;;;;;;5071779;28;20449;-60
2023/03/17 06:44:21;;;;;;;6.93;4.03;;;7.00;99.90;;;;;;5071204;28;20135;-60
2023/03/17 06:46:46;;;;;;;7.82;3.30;;;7.00;99.90;;;;;;5072037;28;20182;-60
2023/03/17 06:49:12;;;;;;;7.00;3.30;;;6.80;99.90;;;;;;5074483;28;21048;-59
2023/03/17 06:51:39;;;;;;;7.97;3.33;;;7.00;99.90;;;;;;5075638;28;20047;-60
2023/03/17 06:54:07;;;;;;;5.95;2.67;;;7.10;99.90;;;;;;5076581;28;20440;-60
2023/03/17 06:56:33;;;;;;;5.13;2.92;;;7.10;99.90;;;;;;5076045;28;20067;-60
2023/03/17 06:58:59;;;;;;;6.53;3.38;;;8.70;99.90;;;;;;5075441;28;20083;-60
2023/03/17 07:01:26;;;;;;;5.53;2.97;;;7.50;99.90;;;;;;5075330;28;20059;-60
2023/03/17 07:03:52;;;;;;;6.13;3.35;;;7.60;99.90;;;;;;5074832;28;21368;-60
2023/03/17 07:06:17;;;;;;;7.95;3.22;;;7.30;99.90;;;;;;5077005;28;20119;-60
2023/03/17 07:08:45;;;;;;;6.30;3.40;;;7.30;99.90;;;;;;5075719;28;20123;-60
2023/03/17 07:11:11;;;;;;;7.20;3.03;;;7.30;99.90;;;;;;5074695;28;20130;-60
2023/03/17 07:13:38;;;;;;;7.57;3.58;;;8.20;99.90;;;;;;5076441;28;20574;-60
2023/03/17 07:16:04;;;;;;;5.57;3.15;;;7.20;99.90;;;;;;5074647;28;20086;-60
2023/03/17 07:18:33;;;;;;;9.02;4.15;;;7.30;99.90;;;;;;5075132;28;20036;-60
2023/03/17 07:21:00;;;;;;;5.72;3.03;;;7.70;99.90;;;;;;5075072;28;20032;-59
2023/03/17 07:23:27;;;;;;;6.57;3.50;;;7.30;99.90;;;;;;5075331;28;20737;-60
2023/03/17 07:25:53;;;;;;;7.75;3.10;;;7.90;99.90;;;;;;5076694;28;20056;-60
2023/03/17 07:28:20;;;;;;;8.10;3.88;;;8.10;99.90;;;;;;5075088;28;20077;-60
2023/03/17 07:30:48;;;;;;;6.32;3.00;;;8.70;99.90;;;;;;5075213;28;20040;-60
2023/03/17 07:33:16;;;;;;;4.68;2.80;;;9.00;99.90;;;;;;5075493;28;20486;-60
2023/03/17 07:35:42;;;;;;;6.72;3.10;;;9.10;99.90;;;;;;5076602;28;20044;-60
2023/03/17 07:38:09;;;;;;;8.50;3.20;;;9.50;99.90;;;;;;5077286;28;20063;-60
2023/03/17 07:40:35;;;;;;;5.72;2.72;;;10.10;99.90;;;;;;5074055;28;20036;-60
2023/03/17 07:43:01;;;;;;;7.40;3.42;;;10.00;99.90;;;;;;5075499;28;20040;-60
2023/03/17 07:45:27;;;;;;;8.32;3.03;;;10.20;99.90;;;;;;5076466;28;20467;-60
2023/03/17 07:47:53;;;;;;;5.53;2.75;;;10.60;99.90;;;;;;5075326;28;20660;-60
2023/03/17 07:50:19;;;;;;;4.28;2.60;;;10.60;99.90;;;;;;5073239;28;20512;-60
2023/03/17 07:52:45;;;;;;;7.78;2.92;;;10.30;99.90;;;;;;5074696;28;20083;-60
2023/03/17 07:55:11;;;;;;;7.10;3.08;;;10.30;99.90;;;;;;5073925;28;20599;-60
2023/03/17 07:57:38;;;;;;;6.25;3.33;;;11.30;99.90;;;;;;5074729;28;20409;-60
2023/03/17 08:00:09;;;;;;;6.43;2.95;;;9.90;99.90;;;;;;5073511;28;20181;-60
2023/03/17 08:02:35;;;;;;;6.93;3.67;;;10.00;99.90;;;;;;5074486;28;20048;-60
2023/03/17 08:05:03;;;;;;;6.32;3.00;;;9.90;99.90;;;;;;5074778;28;20093;-59
2023/03/17 08:07:30;;;;;;;7.05;3.03;;;9.90;99.90;;;;;;5075622;28;20120;-59
2023/03/17 08:09:56;;;;;;;6.70;3.17;;;9.60;99.90;;;;;;5074037;28;20441;-59
2023/03/17 08:12:23;;;;;;;6.13;3.05;;;9.60;99.90;;;;;;5073599;28;20032;-60
2023/03/17 08:14:49;;;;;;;8.02;3.33;;;9.50;99.90;;;;;;5074103;28;20048;-60
2023/03/17 08:17:15;;;;;;;5.57;3.10;;;9.40;99.90;;;;;;5073470;28;20040;-60
2023/03/17 08:19:41;;;;;;;6.00;3.03;;;9.60;99.90;;;;;;5074199;28;20112;-59
2023/03/17 08:22:07;;;;;;;6.88;3.33;;;9.50;99.90;;;;;;5073750;28;20411;-60
2023/03/17 08:24:33;;;;;;;6.10;3.08;;;9.50;99.90;;;;;;5073258;28;20389;-60
2023/03/17 08:26:59;;;;;;;5.93;3.55;;;9.20;99.90;;;;;;5075130;28;20111;-60
2023/03/17 08:29:24;;;;;;;5.82;3.03;;;9.50;99.90;;;;;;5073489;28;20036;-60
2023/03/17 08:31:50;;;;;;;6.60;3.08;;;9.40;99.90;;;;;;5073595;28;20138;-59
2023/03/17 08:34:16;;;;;;;7.03;3.13;;;9.10;99.90;;;;;;5074074;28;20485;-59
2023/03/17 08:36:42;;;;;;;6.30;3.42;;;9.10;99.90;;;;;;5074113;28;20059;-59
2023/03/17 08:39:09;;;;;;;5.90;3.50;;;9.20;99.90;;;;;;5074246;28;20036;-59
2023/03/17 08:41:36;;;;;;;6.25;3.00;;;9.20;99.90;;;;;;5073339;28;20043;-59
2023/03/17 08:44:02;;;;;;;5.70;2.88;;;9.30;99.90;;;;;;5074555;28;20051;-59
2023/03/17 08:46:30;;;;;;;6.97;3.13;;;9.40;99.90;;;;;;5073034;28;20028;-59
2023/03/17 08:48:58;;;;;;;7.47;2.75;;;9.40;99.90;;;;;;5073410;28;20044;-59
2023/03/17 08:51:25;;;;;;;5.72;3.10;;;9.50;99.90;;;;;;5073400;28;20040;-60
2023/03/17 08:53:52;;;;;;;7.28;2.80;;;9.70;99.90;;;;;;5073803;28;20036;-60
2023/03/17 08:56:18;;;;;;;7.30;3.22;;;9.80;99.90;;;;;;5074120;28;20625;-58
2023/03/17 08:58:44;;;;;;;5.63;3.20;;;10.00;99.90;;;;;;5074404;28;20043;-59
2023/03/17 09:01:11;;;;;;;6.50;3.70;;;9.90;99.90;;;;;;5073783;28;20055;-59
2023/03/17 09:03:39;;;;;;;6.78;2.75;;;10.80;99.90;;;;;;5072579;28;20132;-59
2023/03/17 09:06:06;;;;;;;10.18;2.88;;;11.40;99.90;;;;;;5073669;28;20527;-57
2023/03/17 09:08:33;;;;;;;8.15;3.22;;;12.30;99.90;;;;;;5075628;28;20044;-60
2023/03/17 09:11:01;;;;;;;6.65;3.03;;;12.50;99.90;;;;;;5074440;28;20040;-59
2023/03/17 09:13:27;;;;;;;6.95;2.90;;;13.10;99.90;;;;;;5072837;28;20519;-59
2023/03/17 09:15:53;;;;;;;5.65;2.95;;;13.30;99.90;;;;;;5072900;28;20489;-59
2023/03/17 09:18:19;;;;;;;7.15;2.95;;;13.50;99.90;;;;;;5073693;28;20044;-59
2023/03/17 09:20:45;;;;;;;6.38;2.80;;;15.20;99.90;;;;;;5073285;28;20048;-59
2023/03/17 09:23:11;;;;;;;4.80;2.55;;;13.80;99.90;;;;;;5071884;28;20054;-59
2023/03/17 09:25:38;;;;;;;10.27;3.60;;;13.80;99.90;;;;;;5072066;28;20508;-59
2023/03/17 09:28:06;;;;;;;6.10;2.78;;;14.00;99.90;;;;;;5073094;28;20039;-59
2023/03/17 09:30:32;;;;;;;6.60;2.92;;;14.60;99.90;;;;;;5073056;28;20051;-59
2023/03/17 09:32:59;;;;;;;6.25;3.05;;;14.90;99.90;;;;;;5071543;28;20109;-59
2023/03/17 09:35:26;;;;;;;5.55;2.60;;;15.30;99.90;;;;;;5071783;28;20900;-59
2023/03/17 09:37:53;;;;;;;8.63;3.03;;;15.40;99.90;;;;;;5072825;28;20067;-59
2023/03/17 09:40:26;;;;;;;6.45;2.97;;;15.60;99.90;;;;;;5073268;28;20074;-59
2023/03/17 09:43:15;;;;;;;6.22;2.67;;;16.10;99.90;;;;;;5072468;28;20043;-59
2023/03/17 09:45:42;;;;;;;6.18;2.95;;;16.10;99.90;;;;;;5071978;28;20036;-59
2023/03/17 09:48:17;;;;;;;7.63;2.50;;;16.50;99.90;;;;;;5072366;28;20129;-59
2023/03/17 09:50:57;;;;;;;4.95;2.78;;;17.00;99.90;;;;;;5071103;28;20076;-59
2023/03/17 09:53:40;;;;;;;5.75;3.20;;;16.90;99.90;;;;;;5071836;28;20496;-59
2023/03/17 09:56:15;;;;;;;7.38;3.00;;;16.80;99.90;;;;;;5071464;28;20044;-58
2023/03/17 09:58:56;;;;;;;7.10;3.17;;;16.50;99.90;;;;;;5071345;28;20126;-58
2023/03/17 10:01:22;;;;;;;8.05;3.00;;;16.20;99.90;;;;;;5072432;28;20043;-59
2023/03/17 10:03:49;;;;;;;9.80;3.28;;;15.60;99.90;;;;;;5071036;28;20044;-58
2023/03/17 10:06:39;;;;;;;5.30;3.05;;;15.00;99.90;;;;;;5071915;28;20424;-59
2023/03/17 10:09:32;;;;;;;7.45;3.70;;;14.00;99.90;;;;;;5072994;28;20044;-58
2023/03/17 10:12:14;;;;;;;18.65;5.28;;;14.80;99.90;;;;;;5072541;28;20044;-58
2023/03/17 10:14:50;;;;;;;8.10;3.00;;;14.90;99.90;;;;;;5072580;28;20040;-58
2023/03/17 10:17:22;;;;;;;7.43;3.58;;;14.50;99.90;;;;;;5072010;28;20054;-58
2023/03/17 10:19:56;;;;;;;9.50;3.17;;;14.30;99.90;;;;;;5070916;28;20585;-58
2023/03/17 10:22:28;;;;;;;6.80;3.50;;;14.40;99.90;;;;;;5071970;28;20550;-58
2023/03/17 10:24:58;;;;;;;;;;;14.40;99.90;;;;;;5072708;28;20048;-58
2023/03/17 10:27:25;;;;;;;6.05;3.20;;;14.60;99.90;;;;;;5072760;28;19924;-58
2023/03/17 10:29:50;;;;;;;8.68;3.30;;;14.60;99.90;;;;;;5072262;28;20048;-58
2023/03/17 10:32:16;;;;;;;7.85;3.78;;;14.60;99.90;;;;;;5074135;28;20047;-58
2023/03/17 10:34:43;;;;;;;6.50;3.40;;;14.90;99.90;;;;;;5071720;28;20044;-58
2023/03/17 10:37:17;;;;;;;9.38;4.07;;;14.70;99.90;;;;;;5071755;28;20036;-58
2023/03/17 10:39:45;;;;;;;8.18;3.60;;;15.00;99.90;;;;;;5073311;28;20075;-58
2023/03/17 10:42:23;;;;;;;6.68;3.60;;;15.10;99.90;;;;;;5072795;28;20304;-58
2023/03/17 10:45:07;;;;;;;7.43;3.72;;;15.20;99.90;;;;;;5071612;28;20039;-58
2023/03/17 10:47:38;;;;;;;5.93;3.42;;;15.40;99.90;;;;;;5072463;28;20758;-58
2023/03/17 10:50:16;;;;;;;7.47;3.63;;;15.50;99.90;;;;;;5071265;28;20055;-58
2023/03/17 10:52:45;;;;;;;6.50;3.40;;;15.60;99.90;;;;;;5071694;28;20044;-58
2023/03/17 10:55:16;;;;;;;8.52;4.22;;;15.50;99.90;;;;;;5072043;28;20527;-58
2023/03/17 10:58:09;;;;;;;8.55;3.78;;;15.40;99.90;;;;;;5072109;28;20035;-58
2023/03/17 11:00:37;;;;;;;10.10;4.00;;;15.80;99.90;;;;;;5071668;28;20048;-58
2023/03/17 11:03:23;;;;;;;6.70;3.42;;;15.80;99.90;;;;;;5070049;28;20066;-58
2023/03/17 11:06:02;;;;;;;8.32;4.03;;;15.80;99.90;;;;;;5072278;28;20147;-58
2023/03/17 11:08:48;;;;;;;6.65;3.33;;;15.80;99.90;;;;;;5073980;28;20039;-58
2023/03/17 11:11:33;;;;;;;7.90;3.88;;;16.00;99.90;;;;;;5072535;28;20271;-58
2023/03/17 11:14:09;;;;;;;8.43;4.07;;;16.10;99.90;;;;;;5072405;28;20044;-58
2023/03/17 11:16:39;;;;;;;6.22;3.75;;;15.90;99.90;;;;;;5072521;28;20044;-59
2023/03/17 11:19:13;;;;;;;7.50;3.80;;;15.50;99.90;;;;;;5072291;28;20055;-58
2023/03/17 11:21:53;;;;;;;7.95;3.92;;;15.80;99.90;;;;;;5072528;28;20470;-58
2023/03/17 11:24:35;;;;;;;8.07;3.92;;;15.80;99.90;;;;;;5071707;28;20116;-58
2023/03/17 11:27:10;;;;;;;;;;;15.90;99.90;;;;;;5072151;28;20121;-58
2023/03/17 11:30:09;;;;;;;10.45;4.55;;;16.10;99.90;;;;;;5071535;28;19924;-58
2023/03/17 11:32:40;;;;;;;8.38;4.45;;;16.20;99.90;;;;;;5072124;28;20373;-58
2023/03/17 11:35:28;;;;;;;9.43;4.40;;;16.20;99.90;;;;;;5075337;28;20072;-58
2023/03/17 11:38:09;;;;;;;8.63;4.40;;;16.30;99.90;;;;;;5076041;28;20070;-58
2023/03/17 11:40:41;;;;;;;7.78;4.25;;;16.30;99.90;;;;;;5076677;28;20148;-58
2023/03/17 11:43:15;;;;;;;8.75;4.78;;;16.40;99.90;;;;;;5076010;28;20512;-58
2023/03/17 11:45:48;;;;;;;8.73;4.85;;;16.30;99.90;;;;;;5076094;28;20040;-58
2023/03/17 11:48:13;;;;;;;10.98;4.88;;;16.10;99.90;;;;;;5075786;28;20089;-58
2023/03/17 11:51:05;;;;;;;10.48;4.82;;;16.50;99.90;;;;;;5075315;28;20162;-58
2023/03/17 11:53:38;;;;;;;12.13;5.25;;;16.40;99.90;;;;;;5066845;28;20051;-58
2023/03/17 11:56:11;;;;;;;9.35;4.78;;;16.30;99.90;;;;;;5075991;28;20060;-57
2023/03/17 11:58:47;;;;;;;14.13;5.35;;;16.30;99.90;;;;;;5077078;28;20068;-57
2023/03/17 12:01:18;;;;;;;7.78;4.47;;;16.30;99.90;;;;;;5076432;28;20160;-58
2023/03/17 12:03:50;;;;;;;10.75;5.38;;;16.30;99.90;;;;;;5075240;28;20044;-57
2023/03/17 12:06:34;;;;;;;9.00;4.95;;;16.50;99.90;;;;;;5075612;28;20119;-58
2023/03/17 12:09:14;;;;;;;9.65;4.53;;;16.50;99.90;;;;;;5077561;28;20429;-58
2023/03/17 12:11:43;;;;;;;20.42;5.18;;;16.40;99.90;;;;;;5075640;28;20036;-57
2023/03/17 12:14:27;;;;;;;9.50;4.70;;;16.40;99.90;;;;;;5074754;28;20044;-58
2023/03/17 12:17:09;;;;;;;15.25;5.35;;;16.70;99.90;;;;;;5075530;28;20056;-58
2023/03/17 12:20:00;;;;;;;8.73;4.80;;;16.70;99.90;;;;;;5073850;28;20044;-58
2023/03/17 12:23:06;;;;;;;8.88;4.93;;;16.60;99.90;;;;;;5074347;28;20056;-58
2023/03/17 12:25:58;;;;;;;9.38;5.15;;;16.70;99.90;;;;;;5069172;28;20048;-58
2023/03/17 12:28:55;;;;;;;8.05;4.85;;;16.50;99.90;;;;;;5073857;28;20048;-58
2023/03/17 12:31:27;;;;;;;12.93;5.28;;;16.40;99.90;;;;;;5074135;28;20048;-57
2023/03/17 12:34:14;;;;;;;13.13;5.20;;;16.30;99.90;;;;;;5074576;28;20408;-58
2023/03/17 12:36:41;;;;;;;11.65;5.97;;;16.40;99.90;;;;;;5072425;28;20051;-57
2023/03/17 12:39:20;;;;;;;10.55;5.78;;;16.30;99.90;;;;;;5075363;28;20093;-58
2023/03/17 12:41:52;;;;;;;9.60;5.65;;;16.10;99.90;;;;;;5073243;28;20412;-57
2023/03/17 12:44:34;;;;;;;;;;;16.30;99.90;;;;;;5074341;28;20097;-57
2023/03/17 12:47:27;;;;;;;11.85;5.75;;;16.20;99.90;;;;;;5075965;28;20060;-57
2023/03/17 12:50:21;;;;;;;11.15;6.18;;;16.50;99.90;;;;;;5073911;28;20044;-57
2023/03/17 12:53:03;;;;;;;8.40;5.45;;;16.40;99.90;;;;;;5073709;28;20144;-57
2023/03/17 12:55:30;;;;;;;;;;;16.20;99.90;;;;;;5075223;28;20842;-57
2023/03/17 12:58:24;;;;;;;8.75;5.20;;;16.30;99.90;;;;;;5074635;28;20065;-57
2023/03/17 13:01:07;;;;;;;12.02;5.60;;;16.10;99.90;;;;;;5073759;28;20539;-57
2023/03/17 13:03:37;;;;;;;11.35;5.28;;;16.10;99.90;;;;;;5074368;28;20038;-58
2023/03/17 13:06:15;;;;;;;9.43;5.22;;;16.20;99.90;;;;;;5074244;28;20067;-57
2023/03/17 13:08:41;;;;;;;21.33;6.53;;;16.10;99.90;;;;;;5074436;28;20075;-57